createdAt,value
2023-03-16T00:00:52.868Z,5.38
2023-03-16T00:03:20.697Z,5.00
2023-03-16T00:05:49.880Z,4.43
2023-03-16T00:08:18.462Z,5.28
2023-03-16T00:10:46.744Z,6.85
2023-03-16T00:13:18.923Z,7.75
2023-03-16T00:15:52.985Z,6.00
2023-03-16T00:18:21.350Z,6.30
2023-03-16T00:20:52.420Z,6.05
2023-03-16T00:23:19.600Z,6.07
2023-03-16T00:25:46.729Z,5.43
2023-03-16T00:28:14.022Z,4.25
2023-03-16T00:30:41.165Z,5.30
2023-03-16T00:33:35.261Z,5.95
2023-03-16T00:36:08.173Z,4.18
2023-03-16T00:38:37.893Z,5.75
2023-03-16T00:41:07.446Z,4.53
2023-03-16T00:43:40.907Z,5.85
2023-03-16T00:46:11.414Z,5.82
2023-03-16T00:48:42.456Z,5.20
2023-03-16T00:51:15.524Z,5.57
2023-03-16T00:53:44.508Z,4.77
2023-03-16T00:56:12.686Z,4.82
2023-03-16T00:58:43.007Z,4.93
2023-03-16T01:01:19.908Z,5.38
2023-03-16T01:03:48.438Z,5.30
2023-03-16T01:06:17.487Z,4.68
2023-03-16T01:08:45.150Z,5.25
2023-03-16T01:11:18.377Z,5.60
2023-03-16T01:13:49.752Z,4.90
2023-03-16T01:16:23.114Z,4.63
2023-03-16T01:18:52.435Z,4.88
2023-03-16T01:21:21.644Z,3.90
2023-03-16T01:23:50.364Z,4.50
2023-03-16T01:26:18.790Z,4.68
2023-03-16T01:28:47.289Z,4.43
2023-03-16T01:31:14.736Z,4.88
2023-03-16T01:33:43.302Z,4.90
2023-03-16T01:36:16.020Z,4.60
2023-03-16T01:38:54.027Z,4.35
2023-03-16T01:41:22.159Z,4.38
2023-03-16T01:43:49.378Z,4.47
2023-03-16T01:46:19.998Z,4.45
2023-03-16T01:49:20.236Z,3.33
2023-03-16T01:51:51.949Z,3.50
2023-03-16T01:54:34.896Z,3.60
2023-03-16T01:57:05.889Z,4.07
2023-03-16T01:59:48.364Z,4.47
2023-03-16T02:02:19.458Z,5.38
2023-03-16T02:04:53.437Z,4.80
2023-03-16T02:07:24.799Z,4.25
2023-03-16T02:09:57.517Z,4.03
2023-03-16T02:12:24.759Z,4.20
2023-03-16T02:14:55.222Z,4.97
2023-03-16T02:17:28.432Z,3.63
2023-03-16T02:20:29.388Z,3.15
2023-03-16T02:22:56.732Z,3.50
2023-03-16T02:25:35.277Z,3.53
2023-03-16T02:28:22.912Z,3.10
2023-03-16T02:30:51.280Z,3.25
2023-03-16T02:33:19.608Z,3.38
2023-03-16T02:35:46.879Z,3.42
2023-03-16T02:38:14.018Z,2.97
2023-03-16T02:41:00.703Z,3.10
2023-03-16T02:43:35.397Z,3.08
2023-03-16T02:46:10.876Z,2.70
2023-03-16T02:48:49.469Z,2.85
2023-03-16T02:51:16.683Z,2.80
2023-03-16T02:53:43.830Z,3.88
2023-03-16T02:56:11.248Z,3.45
2023-03-16T02:58:38.338Z,2.72
2023-03-16T03:01:11.451Z,2.67
2023-03-16T03:03:39.908Z,2.65
2023-03-16T03:06:07.618Z,2.53
2023-03-16T03:08:36.983Z,3.03
2023-03-16T03:11:04.294Z,3.47
2023-03-16T03:13:31.741Z,2.67
2023-03-16T03:15:59.169Z,3.25
2023-03-16T03:18:28.105Z,2.88
2023-03-16T03:20:55.377Z,2.80
2023-03-16T03:23:22.568Z,3.00
2023-03-16T03:25:49.678Z,2.55
2023-03-16T03:28:18.005Z,2.53
2023-03-16T03:30:45.868Z,2.90
2023-03-16T03:33:13.231Z,2.70
2023-03-16T03:35:42.102Z,2.65
2023-03-16T03:38:09.840Z,2.50
2023-03-16T03:40:37.521Z,2.20
2023-03-16T03:43:06.299Z,2.50
2023-03-16T03:45:37.843Z,2.70
2023-03-16T03:48:05.414Z,2.55
2023-03-16T03:50:34.186Z,2.33
2023-03-16T03:53:22.571Z,2.30
2023-03-16T03:56:25.652Z,2.22
2023-03-16T03:58:52.848Z,2.97
2023-03-16T04:01:39.060Z,2.67
2023-03-16T04:04:06.209Z,2.10
2023-03-16T04:06:33.346Z,3.03
2023-03-16T04:09:00.958Z,2.40
2023-03-16T04:11:29.876Z,2.20
2023-03-16T04:13:57.006Z,2.70
2023-03-16T04:16:26.902Z,2.10
2023-03-16T04:18:55.649Z,2.40
2023-03-16T04:21:24.435Z,2.63
2023-03-16T04:23:54.469Z,2.30
2023-03-16T04:26:25.899Z,2.25
2023-03-16T04:28:53.964Z,2.22
2023-03-16T04:31:21.474Z,3.05
2023-03-16T04:33:49.922Z,2.30
2023-03-16T04:36:17.313Z,2.50
2023-03-16T04:38:45.125Z,3.03
2023-03-16T04:41:12.977Z,3.22
2023-03-16T04:43:48.555Z,3.03
2023-03-16T04:46:21.825Z,4.40
2023-03-16T04:48:49.061Z,4.25
2023-03-16T04:51:16.247Z,3.45
2023-03-16T04:53:57.806Z,3.42
2023-03-16T04:56:33.799Z,3.60
2023-03-16T04:59:05.181Z,3.40
2023-03-16T05:01:43.667Z,3.22
2023-03-16T05:04:18.912Z,3.53
2023-03-16T05:06:47.073Z,3.50
2023-03-16T05:09:15.051Z,3.40
2023-03-16T05:11:42.257Z,3.63
2023-03-16T05:14:12.391Z,3.50
2023-03-16T05:16:58.118Z,3.67
2023-03-16T05:19:26.391Z,3.53
2023-03-16T05:21:53.653Z,3.53
2023-03-16T05:24:21.171Z,3.80
2023-03-16T05:26:48.284Z,3.17
2023-03-16T05:29:19.370Z,3.03
2023-03-16T05:31:47.682Z,2.80
2023-03-16T05:34:17.445Z,3.83
2023-03-16T05:36:45.046Z,3.70
2023-03-16T05:39:15.684Z,4.20
2023-03-16T05:41:46.908Z,3.88
2023-03-16T05:44:16.581Z,3.22
2023-03-16T05:47:12.617Z,3.60
2023-03-16T05:49:44.265Z,3.13
2023-03-16T05:52:21.352Z,4.15
2023-03-16T05:54:48.445Z,3.95
2023-03-16T05:57:15.839Z,3.42
2023-03-16T05:59:46.168Z,3.20
2023-03-16T06:02:13.713Z,3.97
2023-03-16T06:04:41.423Z,3.67
2023-03-16T06:07:08.866Z,4.70
2023-03-16T06:09:36.161Z,4.28
2023-03-16T06:14:37.992Z,2.45
2023-03-16T06:17:05.457Z,2.33
2023-03-16T06:19:33.378Z,4.18
2023-03-16T06:22:02.308Z,3.00
2023-03-16T06:24:31.038Z,2.10
2023-03-16T06:26:58.439Z,2.35
2023-03-16T06:29:31.971Z,2.60
2023-03-16T06:32:00.374Z,2.78
2023-03-16T06:34:28.457Z,2.50
2023-03-16T06:36:56.876Z,2.63
2023-03-16T06:39:24.049Z,2.30
2023-03-16T06:41:51.799Z,2.45
2023-03-16T06:44:18.894Z,2.13
2023-03-16T06:47:02.408Z,2.25
2023-03-16T06:49:29.785Z,2.30
2023-03-16T06:51:58.579Z,2.28
2023-03-16T06:54:26.900Z,2.25
2023-03-16T06:56:54.037Z,2.30
2023-03-16T06:59:22.301Z,2.00
2023-03-16T07:01:50.423Z,2.00
2023-03-16T07:04:17.781Z,2.00
2023-03-16T07:06:45.320Z,2.35
2023-03-16T07:09:13.194Z,2.53
2023-03-16T07:11:42.989Z,2.53
2023-03-16T07:14:10.480Z,2.13
2023-03-16T07:16:38.092Z,2.15
2023-03-16T07:19:07.653Z,2.72
2023-03-16T07:21:40.025Z,2.58
2023-03-16T07:24:13.092Z,3.05
2023-03-16T07:26:42.344Z,2.45
2023-03-16T07:29:12.616Z,2.95
2023-03-16T07:31:40.590Z,2.63
2023-03-16T07:34:15.554Z,2.78
2023-03-16T07:36:52.597Z,2.45
2023-03-16T07:39:22.258Z,3.38
2023-03-16T07:41:54.758Z,3.38
2023-03-16T07:44:40.438Z,2.92
2023-03-16T07:47:13.030Z,2.47
2023-03-16T07:49:43.958Z,2.40
2023-03-16T07:52:17.496Z,2.70
2023-03-16T07:57:14.523Z,2.20
2023-03-16T07:59:45.202Z,2.28
2023-03-16T08:02:19.285Z,3.65
2023-03-16T08:04:52.590Z,2.60
2023-03-16T08:07:22.701Z,2.25
2023-03-16T08:10:15.958Z,2.70
2023-03-16T08:12:52.030Z,2.28
2023-03-16T08:15:22.167Z,2.47
2023-03-16T08:17:56.165Z,2.20
2023-03-16T08:20:28.627Z,2.35
2023-03-16T08:22:57.019Z,2.70
2023-03-16T08:25:28.012Z,2.70
2023-03-16T08:28:06.641Z,2.53
2023-03-16T08:30:35.205Z,1.67
2023-03-16T08:33:40.342Z,2.33
2023-03-16T08:36:13.767Z,2.10
2023-03-16T08:38:50.910Z,3.13
2023-03-16T08:41:35.246Z,3.13
2023-03-16T08:44:13.309Z,2.38
2023-03-16T08:46:43.084Z,2.28
2023-03-16T08:49:14.760Z,2.33
2023-03-16T08:51:52.126Z,2.00
2023-03-16T08:54:20.664Z,2.30
2023-03-16T08:56:48.271Z,2.30
2023-03-16T08:59:29.091Z,2.95
2023-03-16T09:01:58.809Z,2.10
2023-03-16T09:04:28.554Z,1.67
2023-03-16T09:07:07.978Z,2.88
2023-03-16T09:09:37.489Z,2.53
2023-03-16T09:12:06.422Z,2.00
2023-03-16T09:14:37.213Z,1.85
2023-03-16T09:17:06.363Z,1.60
2023-03-16T09:19:50.169Z,2.75
2023-03-16T09:22:20.365Z,1.20
2023-03-16T09:24:51.081Z,1.50
2023-03-16T09:27:19.363Z,1.20
2023-03-16T09:29:48.346Z,0.77
2023-03-16T09:32:17.565Z,1.17
2023-03-16T09:34:45.709Z,1.00
2023-03-16T09:37:14.405Z,0.98
2023-03-16T09:39:42.930Z,1.17
2023-03-16T09:42:20.081Z,1.30
2023-03-16T09:44:50.352Z,1.30
2023-03-16T09:47:25.754Z,1.02
2023-03-16T09:49:57.531Z,1.23
2023-03-16T09:53:00.528Z,0.85
2023-03-16T09:55:33.569Z,1.45
2023-03-16T09:58:04.756Z,0.95
2023-03-16T10:00:42.053Z,1.42
2023-03-16T10:03:49.253Z,1.10
2023-03-16T10:06:19.274Z,0.90
2023-03-16T10:09:38.296Z,0.70
2023-03-16T10:12:08.898Z,1.02
2023-03-16T10:14:54.850Z,1.42
2023-03-16T10:17:55.003Z,0.85
2023-03-16T10:20:25.049Z,0.90
2023-03-16T10:22:54.241Z,1.25
2023-03-16T10:25:29.460Z,0.88
2023-03-16T10:27:57.594Z,0.75
2023-03-16T10:30:30.632Z,1.08
2023-03-16T10:33:05.645Z,1.02
2023-03-16T10:35:55.574Z,0.98
2023-03-16T10:38:43.192Z,0.70
2023-03-16T10:41:22.394Z,0.82
2023-03-16T10:43:51.920Z,1.05
2023-03-16T10:46:19.738Z,1.00
2023-03-16T10:49:01.579Z,0.80
2023-03-16T10:51:37.547Z,2.90
2023-03-16T10:54:28.166Z,1.48
2023-03-16T10:56:56.872Z,1.15
2023-03-16T10:59:34.423Z,1.08
2023-03-16T11:02:17.694Z,1.27
2023-03-16T11:04:46.606Z,1.20
2023-03-16T11:07:25.063Z,1.23
2023-03-16T11:09:55.447Z,0.80
2023-03-16T11:12:32.305Z,0.80
2023-03-16T11:15:20.126Z,0.85
2023-03-16T11:17:53.664Z,1.08
2023-03-16T11:20:28.512Z,1.27
2023-03-16T11:22:57.485Z,1.42
2023-03-16T11:25:37.184Z,1.30
2023-03-16T11:28:38.745Z,1.00
2023-03-16T11:31:34.541Z,0.80
2023-03-16T11:34:02.882Z,1.05
2023-03-16T11:36:42.078Z,1.10
2023-03-16T11:39:31.780Z,1.58
2023-03-16T11:42:25.322Z,1.50
2023-03-16T11:45:16.344Z,1.63
2023-03-16T11:48:01.885Z,1.40
2023-03-16T11:50:54.138Z,1.85
2023-03-16T11:53:30.642Z,1.30
2023-03-16T11:56:11.782Z,2.65
2023-03-16T11:58:42.066Z,1.20
2023-03-16T12:01:25.810Z,1.15
2023-03-16T12:06:47.115Z,1.40
2023-03-16T12:09:20.295Z,1.10
2023-03-16T12:11:57.728Z,1.25
2023-03-16T12:14:33.880Z,1.27
2023-03-16T12:17:09.955Z,2.17
2023-03-16T12:19:55.763Z,1.35
2023-03-16T12:22:32.980Z,1.35
2023-03-16T12:25:01.370Z,1.40
2023-03-16T12:27:38.942Z,1.45
2023-03-16T12:30:27.591Z,1.42
2023-03-16T12:33:07.746Z,1.42
2023-03-16T12:35:59.780Z,1.75
2023-03-16T12:38:41.841Z,1.27
2023-03-16T12:41:28.247Z,1.17
2023-03-16T12:44:22.585Z,1.15
2023-03-16T12:46:56.562Z,1.08
2023-03-16T12:49:25.215Z,1.40
2023-03-16T12:52:05.670Z,1.30
2023-03-16T12:54:33.433Z,1.40
2023-03-16T12:57:06.963Z,1.80
2023-03-16T13:02:06.728Z,2.78
2023-03-16T13:04:39.856Z,1.48
2023-03-16T13:07:09.630Z,1.00
2023-03-16T13:09:44.349Z,1.10
2023-03-16T13:12:38.334Z,1.00
2023-03-16T13:17:45.897Z,1.83
2023-03-16T13:20:20.960Z,1.10
2023-03-16T13:23:09.624Z,1.70
2023-03-16T13:25:44.593Z,1.27
2023-03-16T13:28:17.120Z,1.10
2023-03-16T13:30:49.697Z,1.00
2023-03-16T13:33:43.256Z,1.83
2023-03-16T13:36:14.199Z,1.20
2023-03-16T13:38:41.523Z,1.02
2023-03-16T13:41:14.444Z,1.08
2023-03-16T13:43:43.945Z,0.75
2023-03-16T13:46:19.924Z,2.95
2023-03-16T13:48:48.511Z,1.27
2023-03-16T13:51:20.917Z,1.20
2023-03-16T13:53:50.551Z,0.95
2023-03-16T13:56:27.154Z,1.00
2023-03-16T13:59:00.521Z,0.98
2023-03-16T14:01:31.203Z,1.83
2023-03-16T14:04:08.741Z,1.42
2023-03-16T14:06:36.715Z,1.38
2023-03-16T14:09:17.385Z,1.00
2023-03-16T14:11:48.428Z,1.00
2023-03-16T14:14:17.469Z,0.90
2023-03-16T14:16:45.617Z,1.20
2023-03-16T14:19:24.467Z,1.10
2023-03-16T14:21:52.111Z,1.10
2023-03-16T14:24:46.705Z,0.93
2023-03-16T14:27:16.993Z,1.05
2023-03-16T14:29:45.403Z,1.33
2023-03-16T14:32:28.091Z,1.48
2023-03-16T14:35:13.712Z,2.43
2023-03-16T14:37:42.188Z,1.67
2023-03-16T14:40:26.122Z,2.25
2023-03-16T14:42:57.479Z,2.88
2023-03-16T14:45:31.650Z,2.58
2023-03-16T14:48:05.901Z,2.03
2023-03-16T14:50:34.625Z,2.00
2023-03-16T14:53:03.809Z,1.30
2023-03-16T14:55:31.478Z,1.35
2023-03-16T14:57:58.747Z,1.33
2023-03-16T15:00:26.525Z,1.00
2023-03-16T15:03:06.908Z,2.00
2023-03-16T15:05:37.395Z,1.10
2023-03-16T15:08:07.144Z,1.13
2023-03-16T15:10:36.363Z,1.30
2023-03-16T15:13:13.974Z,1.48
2023-03-16T15:15:42.501Z,1.80
2023-03-16T15:18:09.971Z,1.65
2023-03-16T15:20:43.335Z,1.40
2023-03-16T15:23:15.691Z,1.20
2023-03-16T15:25:44.684Z,0.90
2023-03-16T15:28:15.940Z,1.30
2023-03-16T15:30:45.860Z,1.33
2023-03-16T15:33:13.546Z,1.50
2023-03-16T15:35:41.602Z,1.27
2023-03-16T15:38:15.656Z,1.52
2023-03-16T15:40:44.088Z,1.90
2023-03-16T15:43:13.375Z,1.15
2023-03-16T15:45:41.159Z,1.73
2023-03-16T15:48:10.900Z,3.55
2023-03-16T15:50:40.910Z,2.33
2023-03-16T15:53:30.390Z,1.80
2023-03-16T15:56:04.473Z,1.58
2023-03-16T15:58:34.083Z,1.30
2023-03-16T16:01:03.244Z,1.10
2023-03-16T16:03:31.482Z,1.83
2023-03-16T16:05:58.636Z,1.00
2023-03-16T16:08:25.744Z,1.40
2023-03-16T16:10:53.569Z,1.25
2023-03-16T16:13:37.403Z,1.00
2023-03-16T16:16:15.915Z,1.30
2023-03-16T16:18:43.788Z,1.40
2023-03-16T16:21:24.114Z,1.75
2023-03-16T16:23:52.798Z,1.42
2023-03-16T16:26:41.505Z,1.00
2023-03-16T16:29:15.815Z,1.27
2023-03-16T16:31:43.320Z,1.65
2023-03-16T16:34:13.228Z,1.00
2023-03-16T16:36:40.488Z,1.25
2023-03-16T16:39:08.018Z,1.15
2023-03-16T16:41:37.081Z,1.00
2023-03-16T16:44:08.268Z,1.17
2023-03-16T16:46:40.178Z,1.00
2023-03-16T16:49:15.194Z,1.10
2023-03-16T16:51:42.674Z,1.63
2023-03-16T16:54:21.884Z,1.52
2023-03-16T16:56:52.093Z,1.30
2023-03-16T16:59:25.412Z,1.25
2023-03-16T17:01:59.184Z,1.25
2023-03-16T17:04:29.182Z,1.08
2023-03-16T17:06:59.715Z,1.15
2023-03-16T17:09:28.483Z,1.73
2023-03-16T17:11:59.170Z,1.90
2023-03-16T17:14:31.072Z,0.90
2023-03-16T17:17:05.400Z,1.25
2023-03-16T17:19:32.797Z,1.30
2023-03-16T17:22:00.116Z,1.30
2023-03-16T17:24:27.512Z,1.10
2023-03-16T17:27:00.636Z,1.40
2023-03-16T17:29:31.605Z,1.38
2023-03-16T17:32:04.303Z,1.20
2023-03-16T17:34:34.068Z,1.30
2023-03-16T17:37:02.205Z,1.40
2023-03-16T17:39:32.255Z,2.00
2023-03-16T17:42:02.540Z,2.15
2023-03-16T17:44:51.266Z,1.73
2023-03-16T17:47:21.796Z,1.23
2023-03-16T17:49:49.228Z,1.40
2023-03-16T17:52:20.532Z,1.55
2023-03-16T17:54:49.189Z,1.80
2023-03-16T17:57:19.199Z,1.70
2023-03-16T17:59:47.209Z,1.60
2023-03-16T18:02:32.345Z,1.70
2023-03-16T18:05:00.288Z,1.88
2023-03-16T18:07:27.388Z,1.95
2023-03-16T18:09:54.491Z,2.58
2023-03-16T18:12:21.752Z,2.25
2023-03-16T18:14:48.928Z,2.15
2023-03-16T18:17:23.009Z,1.80
2023-03-16T18:19:50.357Z,1.80
2023-03-16T18:22:19.674Z,1.70
2023-03-16T18:24:48.603Z,1.50
2023-03-16T18:27:16.501Z,1.67
2023-03-16T18:29:45.591Z,2.38
2023-03-16T18:32:33.212Z,1.60
2023-03-16T18:35:02.244Z,1.90
2023-03-16T18:37:31.340Z,1.88
2023-03-16T18:39:58.531Z,1.80
2023-03-16T18:42:27.749Z,2.05
2023-03-16T18:44:54.861Z,2.72
2023-03-16T18:47:23.694Z,3.03
2023-03-16T18:49:54.037Z,2.10
2023-03-16T18:52:24.063Z,1.40
2023-03-16T18:54:53.030Z,1.90
2023-03-16T18:57:28.096Z,1.63
2023-03-16T18:59:55.403Z,1.70
2023-03-16T19:02:39.527Z,1.58
2023-03-16T19:05:19.648Z,1.80
2023-03-16T19:07:50.283Z,1.67
2023-03-16T19:10:22.100Z,1.73
2023-03-16T19:12:50.196Z,2.10
2023-03-16T19:15:23.187Z,1.83
2023-03-16T19:17:51.451Z,2.60
2023-03-16T19:20:21.802Z,2.47
2023-03-16T19:22:51.249Z,1.95
2023-03-16T19:25:25.622Z,2.10
2023-03-16T19:27:53.925Z,2.70
2023-03-16T19:30:31.125Z,3.33
2023-03-16T19:32:58.671Z,3.50
2023-03-16T19:35:44.681Z,4.30
2023-03-16T19:38:15.841Z,4.95
2023-03-16T19:40:43.034Z,3.42
2023-03-16T19:43:28.710Z,2.67
2023-03-16T19:45:56.629Z,3.13
2023-03-16T19:48:32.802Z,4.93
2023-03-16T19:51:00.267Z,3.17
2023-03-16T19:53:27.624Z,3.00
2023-03-16T19:55:54.891Z,2.83
2023-03-16T19:58:33.249Z,2.60
2023-03-16T20:01:01.103Z,4.18
2023-03-16T20:03:31.680Z,3.60
2023-03-16T20:05:58.780Z,4.45
2023-03-16T20:08:28.515Z,3.67
2023-03-16T20:11:02.698Z,3.50
2023-03-16T20:13:31.447Z,3.22
2023-03-16T20:15:58.764Z,3.22
2023-03-16T20:18:28.675Z,4.50
2023-03-16T20:20:55.785Z,3.95
2023-03-16T20:23:26.531Z,3.60
2023-03-16T20:25:56.406Z,4.05
2023-03-16T20:28:30.801Z,3.60
2023-03-16T20:30:59.405Z,3.60
2023-03-16T20:33:28.647Z,3.58
2023-03-16T20:35:56.382Z,3.15
2023-03-16T20:38:23.719Z,3.20
2023-03-16T20:40:53.955Z,2.78
2023-03-16T20:43:30.237Z,3.33
2023-03-16T20:45:59.840Z,2.90
2023-03-16T20:48:27.498Z,3.08
2023-03-16T20:50:56.187Z,3.30
2023-03-16T20:53:24.195Z,4.35
2023-03-16T20:55:52.691Z,3.92
2023-03-16T20:58:25.882Z,4.32
2023-03-16T21:00:57.785Z,4.65
2023-03-16T21:03:28.112Z,3.50
2023-03-16T21:05:59.667Z,4.30
2023-03-16T21:08:27.760Z,4.25
2023-03-16T21:10:56.767Z,4.00
2023-03-16T21:13:31.342Z,3.88
2023-03-16T21:16:01.741Z,3.25
2023-03-16T21:18:30.432Z,4.60
2023-03-16T21:20:58.734Z,4.18
2023-03-16T21:23:26.104Z,4.05
2023-03-16T21:25:55.736Z,4.18
2023-03-16T21:28:25.364Z,4.20
2023-03-16T21:30:54.604Z,3.88
2023-03-16T21:33:29.924Z,4.75
2023-03-16T21:36:00.810Z,3.67
2023-03-16T21:38:30.352Z,4.72
2023-03-16T21:40:58.529Z,4.60
2023-03-16T21:43:26.696Z,4.00
2023-03-16T21:45:55.129Z,4.43
2023-03-16T21:48:25.265Z,3.58
2023-03-16T21:50:53.836Z,4.40
2023-03-16T21:53:22.752Z,4.25
2023-03-16T21:55:53.439Z,4.85
2023-03-16T21:58:22.190Z,4.20
2023-03-16T22:00:51.684Z,3.65
2023-03-16T22:03:44.259Z,4.90
2023-03-16T22:06:16.984Z,4.88
2023-03-16T22:08:44.338Z,4.45
2023-03-16T22:11:17.905Z,5.75
2023-03-16T22:13:46.429Z,4.95
2023-03-16T22:16:17.153Z,5.35
2023-03-16T22:18:49.319Z,4.60
2023-03-16T22:21:26.298Z,6.00
2023-03-16T22:23:54.064Z,5.70
2023-03-16T22:26:23.024Z,5.65
2023-03-16T22:28:53.058Z,5.53
2023-03-16T22:31:29.900Z,6.93
2023-03-16T22:33:57.304Z,5.93
2023-03-16T22:36:24.487Z,5.13
2023-03-16T22:39:08.655Z,5.45
2023-03-16T22:44:02.867Z,5.75
2023-03-16T22:46:30.215Z,5.60
2023-03-16T22:48:57.720Z,5.45
2023-03-16T22:51:37.675Z,6.03
2023-03-16T22:54:08.438Z,6.22
2023-03-16T22:56:36.051Z,5.70
2023-03-16T22:59:07.742Z,5.80
2023-03-16T23:01:39.550Z,5.63
2023-03-16T23:04:15.580Z,5.60
2023-03-16T23:06:43.406Z,5.00
2023-03-16T23:09:15.407Z,5.95
2023-03-16T23:11:44.524Z,5.90
2023-03-16T23:14:16.841Z,5.80
2023-03-16T23:16:45.521Z,6.78
2023-03-16T23:19:26.103Z,6.13
2023-03-16T23:21:55.611Z,6.22
2023-03-16T23:24:23.661Z,5.90
2023-03-16T23:26:52.801Z,5.88
2023-03-16T23:29:21.577Z,6.20
2023-03-16T23:31:49.225Z,5.60
2023-03-16T23:34:19.005Z,6.55
2023-03-16T23:36:47.699Z,5.65
2023-03-16T23:39:14.980Z,7.32
2023-03-16T23:41:45.193Z,6.13
2023-03-16T23:44:18.464Z,6.10
2023-03-16T23:46:45.852Z,6.72
2023-03-16T23:49:21.974Z,7.00
2023-03-16T23:51:49.778Z,6.22
2023-03-16T23:54:25.410Z,6.07
2023-03-16T23:56:52.595Z,6.70
2023-03-16T23:59:20.908Z,6.88
